Disclaimer

Please do not use the information listed here in-flight or in-navigation, as they are not provided to us by the airports but are provided by volunteers, so they might be outdated.

Search


Regions


Airport information page

Radio informations:
Melbourne Center - 122.1 MHz
Common traffic adv. frequency (CTAF) - 118.8 MHz

Airport informations:
Latitude: 34° 13' 45.00" S
Longitude: 142° 05' 08.00" E
Elevation: 167 feet - 51 meters
Operating hours: N/A
Operating agency: Civil government, landing fees and diplomatic clearance may be required
Timezone: UTC+10(+11DT)
Fuel: Jet A1, without icing nhibitor.

100/130 MIL Spec, low lead, aviation gasoline (BLUE)

Runway information:
09/27 - 6004 x 148 feet< - >1830 x 45 meters
18/36 - 3737 x 98 feet< - >1139 x 30 meters

Recent METARs:
YMIA 142100Z AUTO 19007KT 9999 // NCD 13/08 Q1022
YMIA 142100Z AUTO 19007KT 9999 // NCD 13/08 Q1022
YMIA 142200Z AUTO 19006KT 9999 // NCD 15/08 Q1023

Airport on the map: